Time;durP1;ratioP1;P1;durP2;ratioP2;P2;SDS_P1;SDS_P2;PMS_P1;PMS_P2;Temp;Humidity;BMP_temperature;BMP_pressure;BME280_temperature;BME280_humidity;BME280_pressure;Samples;Min_cycle;Max_cycle;Signal;HPM_P1;HPM_P2
2022/05/11 00:01:13;;;;;;;;;;;17.20;99.90;;;;;;5093056;28;19920;-74
2022/05/11 00:03:40;;;;;;;;;;;17.20;99.90;;;;;;5093031;28;19909;-73
2022/05/11 00:06:07;;;;;;;;;;;17.20;99.90;;;;;;5093086;28;19973;-74
2022/05/11 00:08:34;;;;;;;;;;;17.10;99.90;;;;;;5093351;28;19908;-73
2022/05/11 00:11:02;;;;;;;;;;;16.90;99.90;;;;;;5093071;28;19908;-73
2022/05/11 00:13:29;;;;;;;;;;;16.90;99.90;;;;;;5092726;28;19908;-73
2022/05/11 00:15:56;;;;;;;;;;;16.90;99.90;;;;;;5093207;28;19915;-73
2022/05/11 00:18:23;;;;;;;;;;;16.90;99.90;;;;;;5092972;28;20008;-74
2022/05/11 00:20:49;;;;;;;;;;;16.90;99.90;;;;;;5091861;28;19916;-73
2022/05/11 00:23:16;;;;;;;;;;;16.90;99.90;;;;;;5092959;28;20006;-74
2022/05/11 00:25:44;;;;;;;;;;;16.90;99.90;;;;;;5092814;28;19915;-73
2022/05/11 00:28:12;;;;;;;;;;;16.90;99.90;;;;;;5092885;28;20282;-74
2022/05/11 00:30:38;;;;;;;;;;;16.90;99.90;;;;;;5092918;28;19908;-73
2022/05/11 00:33:05;;;;;;;;;;;16.80;99.90;;;;;;5093074;28;19908;-72
2022/05/11 00:35:33;;;;;;;;;;;16.80;99.90;;;;;;5092560;28;19918;-79
2022/05/11 00:38:00;;;;;;;;;;;16.80;99.90;;;;;;5092883;28;19908;-76
2022/05/11 00:40:27;;;;;;;;;;;16.80;99.90;;;;;;5095503;28;20321;-73
2022/05/11 00:42:54;;;;;;;;;;;16.90;99.90;;;;;;5096635;28;19912;-73
2022/05/11 00:45:20;;;;;;;;;;;16.90;99.90;;;;;;5096804;28;19999;-74
2022/05/11 00:47:50;;;;;;;;;;;16.90;99.90;;;;;;5096417;28;19909;-76
2022/05/11 00:50:18;;;;;;;;;;;16.90;99.90;;;;;;5096343;28;20472;-72
2022/05/11 00:52:51;;;;;;;;;;;16.80;99.90;;;;;;5096659;28;20358;-72
2022/05/11 00:55:23;;;;;;;;;;;16.90;99.90;;;;;;5096647;28;20002;-73
2022/05/11 00:57:53;;;;;;;;;;;16.80;99.90;;;;;;5096205;28;19934;-73
2022/05/11 01:00:21;;;;;;;;;;;16.80;99.90;;;;;;5096369;28;20359;-72
2022/05/11 01:02:52;;;;;;;;;;;16.70;99.90;;;;;;5096474;28;19908;-75
2022/05/11 01:05:18;;;;;;;;;;;16.60;99.90;;;;;;5096604;28;19909;-74
2022/05/11 01:07:45;;;;;;;;;;;16.60;99.90;;;;;;5093599;28;20454;-72
2022/05/11 01:10:12;;;;;;;;;;;16.70;99.90;;;;;;5084911;28;19915;-74
2022/05/11 01:12:40;;;;;;;;;;;16.70;99.90;;;;;;5075000;28;19909;-75
2022/05/11 01:15:08;;;;;;;;;;;16.70;99.90;;;;;;5114858;28;19915;-75
2022/05/11 01:17:36;;;;;;;;;;;16.80;99.90;;;;;;5116274;28;19908;-72
2022/05/11 01:20:05;;;;;;;;;;;16.80;99.90;;;;;;5116458;28;20263;-72
2022/05/11 01:22:39;;;;;;;;;;;17.00;99.90;;;;;;5116548;28;19994;-72
2022/05/11 01:25:07;;;;;;;;;;;17.00;99.90;;;;;;5116644;28;19995;-72
2022/05/11 01:27:41;;;;;;;;;;;17.00;99.90;;;;;;5116012;28;19912;-72
2022/05/11 01:30:15;;;;;;;;;;;16.90;99.90;;;;;;5116383;28;19918;-73
2022/05/11 01:32:43;;;;;;;;;;;16.80;99.90;;;;;;5116256;28;20006;-72
2022/05/11 01:35:27;;;;;;;;;;;16.80;99.90;;;;;;5115996;28;19946;-72
2022/05/11 01:38:02;;;;;;;;;;;16.90;99.90;;;;;;5115983;28;19950;-72
2022/05/11 01:40:29;;;;;;;;;;;17.00;99.90;;;;;;5116060;28;19916;-72
2022/05/11 01:42:55;;;;;;;;;;;17.00;99.90;;;;;;5115655;28;19908;-73
2022/05/11 01:45:22;;;;;;;;;;;17.00;99.90;;;;;;5115829;28;19954;-71
2022/05/11 01:47:48;;;;;;;;;;;17.10;99.90;;;;;;5115714;28;19915;-72
2022/05/11 01:50:15;;;;;;;;;;;17.10;99.90;;;;;;5115537;28;20290;-73
2022/05/11 01:52:42;;;;;;;;;;;17.10;99.90;;;;;;5115893;28;19912;-72
2022/05/11 01:55:09;;;;;;;;;;;17.10;99.90;;;;;;5115723;28;19950;-72
2022/05/11 01:57:36;;;;;;;;;;;17.00;99.90;;;;;;5115395;28;19947;-72
2022/05/11 02:00:03;;;;;;;;;;;17.10;99.90;;;;;;5115435;28;20264;-72
2022/05/11 02:02:30;;;;;;;;;;;17.00;99.90;;;;;;5115639;28;19972;-73
2022/05/11 02:07:50;;;;;;;;;;;17.00;99.90;;;;;;5115334;28;19915;-72
2022/05/11 02:10:18;;;;;;;;;;;17.10;99.90;;;;;;5115600;28;19908;-75
2022/05/11 02:12:44;;;;;;;;;;;17.10;99.90;;;;;;5115215;28;19915;-75
2022/05/11 02:15:13;;;;;;;;;;;17.10;99.90;;;;;;5115401;28;19914;-72
2022/05/11 02:17:41;;;;;;;;;;;17.10;99.90;;;;;;5115000;28;19908;-76
2022/05/11 02:20:08;;;;;;;;;;;17.10;99.90;;;;;;5115127;28;19920;-74
2022/05/11 02:22:35;;;;;;;;;;;17.10;99.90;;;;;;5115155;28;19998;-79
2022/05/11 02:25:01;;;;;;;;;;;17.10;99.90;;;;;;5107300;28;19920;-76
2022/05/11 02:27:28;;;;;;;;;;;17.10;99.90;;;;;;5082538;28;20278;-73
2022/05/11 02:29:55;;;;;;;;;;;17.10;99.90;;;;;;5073601;28;19962;-73
2022/05/11 02:32:21;;;;;;;;;;;17.20;99.90;;;;;;5074412;28;19908;-73
2022/05/11 02:37:55;;;;;;;;;;;17.20;99.90;;;;;;5051969;28;19983;-74
2022/05/11 02:40:23;;;;;;;;;;;17.30;99.90;;;;;;5051932;28;19939;-75
2022/05/11 02:42:50;;;;;;;;;;;17.30;99.90;;;;;;5062930;28;20259;-75
2022/05/11 02:45:17;;;;;;;;;;;17.30;99.90;;;;;;5074163;28;20418;-74
2022/05/11 02:47:44;;;;;;;;;;;17.20;99.90;;;;;;5073857;28;19915;-75
2022/05/11 02:50:12;;;;;;;;;;;17.10;99.90;;;;;;5073860;28;19920;-73
2022/05/11 02:52:39;;;;;;;;;;;17.10;99.90;;;;;;5074119;28;19934;-75
2022/05/11 02:55:06;;;;;;;;;;;17.00;99.90;;;;;;5074014;28;19999;-75
2022/05/11 02:57:33;;;;;;;;;;;17.10;99.90;;;;;;5073680;28;20428;-75
2022/05/11 03:00:00;;;;;;;;;;;17.10;99.90;;;;;;5073828;28;20284;-75
2022/05/11 03:02:27;;;;;;;;;;;17.30;99.90;;;;;;5073356;28;19916;-76
2022/05/11 03:04:53;;;;;;;;;;;17.30;99.90;;;;;;5073790;28;19913;-75
2022/05/11 03:07:20;;;;;;;;;;;17.30;99.90;;;;;;5073787;28;19913;-76
2022/05/11 03:09:47;;;;;;;;;;;17.30;99.90;;;;;;5073529;28;20358;-75
2022/05/11 03:12:14;;;;;;;;;;;17.30;99.90;;;;;;5073526;28;19920;-74
2022/05/11 03:14:41;;;;;;;;;;;17.30;99.90;;;;;;5073641;28;19908;-75
2022/05/11 03:17:08;;;;;;;;;;;17.40;99.90;;;;;;5073635;28;19930;-75
2022/05/11 03:19:34;;;;;;;;;;;17.50;99.90;;;;;;5073390;28;19908;-75
2022/05/11 03:22:01;;;;;;;;;;;17.50;99.90;;;;;;5072299;28;19912;-76
2022/05/11 03:24:28;;;;;;;;;;;17.50;99.90;;;;;;5073516;28;19909;-76
2022/05/11 03:26:54;;;;;;;;;;;17.60;99.90;;;;;;5073299;28;19944;-75
2022/05/11 03:29:21;;;;;;;;;;;17.60;99.90;;;;;;5073520;28;19912;-75
2022/05/11 03:34:36;;;;;;;;;;;17.60;99.90;;;;;;5073734;28;20255;-75
2022/05/11 03:37:10;;;;;;;;;;;17.60;99.90;;;;;;5073560;28;20279;-74
2022/05/11 03:39:37;;;;;;;;;;;17.60;99.90;;;;;;5073075;28;19913;-74
2022/05/11 03:42:05;;;;;;;;;;;17.50;99.90;;;;;;5073204;28;20267;-74
2022/05/11 03:44:32;;;;;;;;;;;17.50;99.90;;;;;;5073226;28;19970;-74
2022/05/11 03:46:59;;;;;;;;;;;17.50;99.90;;;;;;5072970;28;19909;-74
2022/05/11 03:49:27;;;;;;;;;;;17.50;99.90;;;;;;5072904;28;20321;-74
2022/05/11 03:51:54;;;;;;;;;;;17.60;99.90;;;;;;5105514;28;19912;-76
2022/05/11 03:54:21;;;;;;;;;;;17.50;99.90;;;;;;5073251;28;20408;-74
2022/05/11 03:56:47;;;;;;;;;;;17.60;99.90;;;;;;5073033;28;20389;-74
2022/05/11 03:59:14;;;;;;;;;;;17.60;99.90;;;;;;5073052;28;19916;-74
2022/05/11 04:01:41;;;;;;;;;;;17.60;99.90;;;;;;5082557;28;19927;-74
2022/05/11 04:04:07;;;;;;;;;;;17.70;99.90;;;;;;5073009;28;19913;-75
2022/05/11 04:06:34;;;;;;;;;;;17.70;99.90;;;;;;5088659;28;19912;-75
2022/05/11 04:09:01;;;;;;;;;;;17.70;99.90;;;;;;5113587;28;19996;-74
2022/05/11 04:11:29;;;;;;;;;;;17.80;99.90;;;;;;5113523;28;19908;-74
2022/05/11 04:13:56;;;;;;;;;;;17.80;99.90;;;;;;5113866;28;19908;-74
2022/05/11 04:16:24;;;;;;;;;;;17.90;99.90;;;;;;5117733;28;19908;-73
2022/05/11 04:18:50;;;;;;;;;;;18.00;99.90;;;;;;5117650;28;19908;-74
2022/05/11 04:21:17;;;;;;;;;;;18.10;99.90;;;;;;5117653;28;19915;-76
2022/05/11 04:23:44;;;;;;;;;;;18.20;99.90;;;;;;5117397;28;19957;-75
2022/05/11 04:26:12;;;;;;;;;;;18.30;99.90;;;;;;5117371;28;20281;-74
2022/05/11 04:28:39;;;;;;;;;;;18.20;99.90;;;;;;5117474;28;20274;-74
2022/05/11 04:31:07;;;;;;;;;;;18.30;99.90;;;;;;5117426;28;19908;-75
2022/05/11 04:33:34;;;;;;;;;;;18.30;99.90;;;;;;5117312;28;19919;-76
2022/05/11 04:36:01;;;;;;;;;;;18.30;99.90;;;;;;5117358;28;20002;-74
2022/05/11 04:38:28;;;;;;;;;;;18.30;99.90;;;;;;5117349;28;19915;-75
2022/05/11 04:40:55;;;;;;;;;;;18.30;99.90;;;;;;5116933;28;19923;-74
2022/05/11 04:43:21;;;;;;;;;;;18.30;99.90;;;;;;5117152;28;20006;-74
2022/05/11 04:45:48;;;;;;;;;;;18.50;99.90;;;;;;5116906;28;19908;-73
2022/05/11 04:48:16;;;;;;;;;;;18.50;99.90;;;;;;5115742;28;19908;-74
2022/05/11 04:50:43;;;;;;;;;;;18.50;99.90;;;;;;5116825;28;20381;-74
2022/05/11 04:53:11;;;;;;;;;;;18.40;99.90;;;;;;5116993;28;19952;-74
2022/05/11 04:55:38;;;;;;;;;;;18.40;99.90;;;;;;5116475;28;19907;-76
2022/05/11 04:58:04;;;;;;;;;;;18.30;99.90;;;;;;5116963;28;19926;-74
2022/05/11 05:00:31;;;;;;;;;;;18.20;99.90;;;;;;5116812;28;19915;-74
2022/05/11 05:02:59;;;;;;;;;;;18.30;99.90;;;;;;5116849;28;19908;-76
2022/05/11 05:05:25;;;;;;;;;;;18.30;99.90;;;;;;5116760;28;19922;-74
2022/05/11 05:07:52;;;;;;;;;;;18.20;99.90;;;;;;5116661;28;19908;-74
2022/05/11 05:10:21;;;;;;;;;;;18.20;99.90;;;;;;5116307;28;20009;-74
2022/05/11 05:12:48;;;;;;;;;;;18.10;99.90;;;;;;5116732;28;19915;-73
2022/05/11 05:15:16;;;;;;;;;;;18.20;99.90;;;;;;5116189;28;20397;-73
2022/05/11 05:17:42;;;;;;;;;;;18.10;99.90;;;;;;5116120;28;19907;-73
2022/05/11 05:20:10;;;;;;;;;;;18.00;99.90;;;;;;5116203;28;19977;-73
2022/05/11 05:22:37;;;;;;;;;;;17.80;99.90;;;;;;5116339;28;19988;-73
2022/05/11 05:25:04;;;;;;;;;;;17.70;99.90;;;;;;5115424;28;19912;-73
2022/05/11 05:27:30;;;;;;;;;;;17.60;99.90;;;;;;5116409;28;19961;-72
2022/05/11 05:32:44;;;;;;;;;;;17.50;99.90;;;;;;5116364;28;19915;-72
2022/05/11 05:35:12;;;;;;;;;;;17.40;99.90;;;;;;5116181;28;20011;-72
2022/05/11 05:37:39;;;;;;;;;;;17.30;99.90;;;;;;5115954;28;19947;-72
2022/05/11 05:40:06;;;;;;;;;;;17.30;99.90;;;;;;5115827;28;20370;-72
2022/05/11 05:42:33;;;;;;;;;;;17.30;99.90;;;;;;5115981;28;19908;-72
2022/05/11 05:45:00;;;;;;;;;;;17.30;99.90;;;;;;5116126;28;19954;-72
2022/05/11 05:47:26;;;;;;;;;;;17.30;99.90;;;;;;5115844;28;20376;-72
2022/05/11 05:49:53;;;;;;;;;;;17.40;99.90;;;;;;5115285;28;19931;-73
2022/05/11 05:52:22;;;;;;;;;;;17.40;99.90;;;;;;5115725;28;19993;-72
2022/05/11 05:54:50;;;;;;;;;;;17.20;99.90;;;;;;5115363;28;19915;-71
2022/05/11 05:57:17;;;;;;;;;;;17.10;99.90;;;;;;5115566;28;19908;-72
2022/05/11 05:59:45;;;;;;;;;;;17.00;99.90;;;;;;5115417;28;20320;-73
2022/05/11 06:02:14;;;;;;;;;;;16.90;99.90;;;;;;5115685;28;20354;-73
2022/05/11 06:04:41;;;;;;;;;;;16.90;99.90;;;;;;5115472;28;19908;-72
2022/05/11 06:07:08;;;;;;;;;;;16.80;99.90;;;;;;5115465;28;19908;-73
2022/05/11 06:09:35;;;;;;;;;;;16.90;99.90;;;;;;5115199;28;19990;-73
2022/05/11 06:12:01;;;;;;;;;;;16.80;99.90;;;;;;5115517;28;20377;-72
2022/05/11 06:14:28;;;;;;;;;;;16.80;99.90;;;;;;5115628;28;20431;-73
2022/05/11 06:16:55;;;;;;;;;;;16.80;99.90;;;;;;5115388;28;20302;-72
2022/05/11 06:19:21;;;;;;;;;;;16.90;99.90;;;;;;5115315;28;19961;-73
2022/05/11 06:21:48;;;;;;;;;;;16.90;99.90;;;;;;5115019;28;19962;-73
2022/05/11 06:24:15;;;;;;;;;;;17.00;99.90;;;;;;5115323;28;20369;-73
2022/05/11 06:26:42;;;;;;;;;;;16.90;99.90;;;;;;5115165;28;19908;-73
2022/05/11 06:29:09;;;;;;;;;;;16.80;99.90;;;;;;5115134;28;19907;-73
2022/05/11 06:31:35;;;;;;;;;;;16.80;99.90;;;;;;5114828;28;20324;-74
2022/05/11 06:34:02;;;;;;;;;;;16.80;99.90;;;;;;5115004;28;19908;-74
2022/05/11 06:36:29;;;;;;;;;;;16.80;99.90;;;;;;5114312;28;19908;-73
2022/05/11 06:38:56;;;;;;;;;;;16.80;99.90;;;;;;5114625;28;19912;-74
2022/05/11 06:41:25;;;;;;;;;;;16.80;99.90;;;;;;5114749;28;19974;-74
2022/05/11 06:43:52;;;;;;;;;;;16.70;99.90;;;;;;5114693;28;19908;-74
2022/05/11 06:46:19;;;;;;;;;;;16.70;99.90;;;;;;5114663;28;20266;-73
2022/05/11 06:48:46;;;;;;;;;;;16.80;99.90;;;;;;5114619;28;20073;-73
2022/05/11 06:51:13;;;;;;;;;;;16.80;99.90;;;;;;5112893;28;19919;-73
2022/05/11 06:59:21;;;;;;;;;;;16.80;99.90;;;;;;5112558;28;19967;-75
2022/05/11 07:01:52;;;;;;;;;;;16.70;99.90;;;;;;5112118;28;19915;-74
2022/05/11 07:04:22;;;;;;;;;;;16.70;99.90;;;;;;5111879;28;20358;-76
2022/05/11 07:06:49;;;;;;;;;;;16.80;99.90;;;;;;5112363;28;20394;-75
2022/05/11 07:09:16;;;;;;;;;;;16.90;99.90;;;;;;5112176;28;19943;-76
2022/05/11 07:14:27;;;;;;;;;;;16.90;99.90;;;;;;5112592;28;19915;-74
2022/05/11 07:16:54;;;;;;;;;;;16.90;99.90;;;;;;5111809;28;19911;-74
2022/05/11 07:19:23;;;;;;;;;;;16.90;99.90;;;;;;5112071;28;19911;-73
2022/05/11 07:21:50;;;;;;;;;;;16.90;99.90;;;;;;5110153;28;20038;-76
2022/05/11 07:24:17;;;;;;;;;;;16.90;99.90;;;;;;5089136;28;20398;-74
2022/05/11 07:26:44;;;;;;;;;;;16.80;99.90;;;;;;5091135;28;19912;-74
2022/05/11 07:29:11;;;;;;;;;;;16.80;99.90;;;;;;5091513;28;19908;-74
2022/05/11 07:31:37;;;;;;;;;;;16.90;99.90;;;;;;5091301;28;19964;-76
2022/05/11 07:34:04;;;;;;;;;;;16.90;99.90;;;;;;5091444;28;19919;-75
2022/05/11 07:36:31;;;;;;;;;;;16.90;99.90;;;;;;5091034;28;20343;-75
2022/05/11 07:38:58;;;;;;;;;;;16.90;99.90;;;;;;5091429;28;19908;-74
2022/05/11 07:41:25;;;;;;;;;;;16.90;99.90;;;;;;5090130;28;19939;-74
2022/05/11 07:43:52;;;;;;;;;;;16.90;99.90;;;;;;5090705;28;19931;-75
2022/05/11 07:46:19;;;;;;;;;;;16.90;99.90;;;;;;5091308;28;19922;-74
2022/05/11 07:48:47;;;;;;;;;;;17.00;99.90;;;;;;5089586;28;19912;-74
2022/05/11 07:51:14;;;;;;;;;;;16.90;99.90;;;;;;5090936;28;20010;-73
2022/05/11 07:53:41;;;;;;;;;;;16.90;99.90;;;;;;5091020;28;19993;-75
2022/05/11 08:01:36;;;;;;;;;;;17.00;99.90;;;;;;5090501;28;20355;-73
2022/05/11 08:04:03;;;;;;;;;;;17.00;99.90;;;;;;5091029;28;19967;-73
2022/05/11 08:06:30;;;;;;;;;;;16.90;99.90;;;;;;5091296;28;19944;-73
2022/05/11 08:08:56;;;;;;;;;;;16.90;99.90;;;;;;5090987;28;19912;-74
2022/05/11 08:11:23;;;;;;;;;;;16.90;99.90;;;;;;5090949;28;20009;-73
2022/05/11 08:13:50;;;;;;;;;;;16.90;99.90;;;;;;5090932;28;19919;-73
2022/05/11 08:16:18;;;;;;;;;;;16.90;99.90;;;;;;5090615;28;20287;-73
2022/05/11 08:18:44;;;;;;;;;;;16.80;99.90;;;;;;5091010;28;20301;-73
2022/05/11 08:21:11;;;;;;;;;;;16.90;99.90;;;;;;5090901;28;20286;-73
2022/05/11 08:23:38;;;;;;;;;;;16.80;99.90;;;;;;5090724;28;20343;-74
2022/05/11 08:26:05;;;;;;;;;;;16.80;99.90;;;;;;5090909;28;19909;-73
2022/05/11 08:28:31;;;;;;;;;;;16.80;99.90;;;;;;5090577;28;19952;-75
2022/05/11 08:33:43;;;;;;;;;;;16.90;99.90;;;;;;5090803;28;20377;-74
2022/05/11 08:36:16;;;;;;;;;;;16.80;99.90;;;;;;5091096;28;20385;-74
2022/05/11 08:38:45;;;;;;;;;;;16.80;99.90;;;;;;5090885;28;19915;-73
2022/05/11 08:41:30;;;;;;;;;;;16.90;99.90;;;;;;5090584;28;19927;-73
2022/05/11 08:44:01;;;;;;;;;;;16.90;99.90;;;;;;5090841;28;19908;-73
2022/05/11 08:46:47;;;;;;;;;;;16.90;99.90;;;;;;5090861;28;19923;-73
2022/05/11 08:49:14;;;;;;;;;;;16.90;99.90;;;;;;5090524;28;19920;-73
2022/05/11 08:51:43;;;;;;;;;;;17.00;99.90;;;;;;5090736;28;19912;-73
2022/05/11 08:54:14;;;;;;;;;;;17.00;99.90;;;;;;5090336;28;20290;-75
2022/05/11 08:56:43;;;;;;;;;;;17.00;99.90;;;;;;5090813;28;20366;-74
2022/05/11 08:59:19;;;;;;;;;;;17.00;99.90;;;;;;5090784;28;19909;-74
2022/05/11 09:01:48;;;;;;;;;;;16.90;99.90;;;;;;5093461;28;19927;-76
2022/05/11 09:04:17;;;;;;;;;;;16.90;99.90;;;;;;5094451;28;19915;-74
2022/05/11 09:06:45;;;;;;;;;;;16.90;99.90;;;;;;5096216;28;19920;-75
2022/05/11 09:09:14;;;;;;;;;;;16.90;99.90;;;;;;5096227;28;19915;-75
2022/05/11 09:11:43;;;;;;;;;;;17.00;99.90;;;;;;5096018;28;19908;-74
2022/05/11 09:14:13;;;;;;;;;;;17.00;99.90;;;;;;5096283;28;20286;-75
2022/05/11 09:16:43;;;;;;;;;;;17.00;99.90;;;;;;5096271;28;19961;-74
2022/05/11 09:19:14;;;;;;;;;;;17.00;99.90;;;;;;5096193;28;19950;-74
2022/05/11 09:21:47;;;;;;;;;;;17.00;99.90;;;;;;5095937;28;19955;-75
2022/05/11 09:24:23;;;;;;;;;;;17.00;99.90;;;;;;5096063;28;19912;-74
2022/05/11 09:27:09;;;;;;;;;;;17.00;99.90;;;;;;5096025;28;20287;-72
2022/05/11 09:29:40;;;;;;;;;;;17.00;99.90;;;;;;5095732;28;20374;-73
2022/05/11 09:32:21;;;;;;;;;;;17.00;99.90;;;;;;5095971;28;20358;-72
2022/05/11 09:34:47;;;;;;;;;;;17.00;99.90;;;;;;5095867;28;19912;-73
2022/05/11 09:37:25;;;;;;;;;;;17.00;99.90;;;;;;5095940;28;19967;-73
2022/05/11 09:40:12;;;;;;;;;;;17.00;99.90;;;;;;5095501;28;20380;-73
2022/05/11 09:42:59;;;;;;;;;;;17.00;99.90;;;;;;5095546;28;19909;-74
2022/05/11 09:45:47;;;;;;;;;;;17.10;99.90;;;;;;5095638;28;19912;-73
2022/05/11 09:48:16;;;;;;;;;;;17.10;99.90;;;;;;5095519;28;19951;-73
2022/05/11 09:50:43;;;;;;;;;;;17.10;99.90;;;;;;5095539;28;19920;-73
2022/05/11 09:53:16;;;;;;;;;;;17.10;99.90;;;;;;5094676;28;20374;-73
2022/05/11 09:55:43;;;;;;;;;;;17.10;99.90;;;;;;5095071;28;19948;-74
2022/05/11 09:58:10;;;;;;;;;;;17.10;99.90;;;;;;5095458;28;19961;-73
2022/05/11 10:00:36;;;;;;;;;;;17.10;99.90;;;;;;5095258;28;19924;-73
2022/05/11 10:03:06;;;;;;;;;;;17.20;99.90;;;;;;5095310;28;19908;-73
2022/05/11 10:05:38;;;;;;;;;;;17.10;99.90;;;;;;5095172;28;19912;-73
2022/05/11 10:08:11;;;;;;;;;;;17.10;99.90;;;;;;5095166;28;19914;-73
2022/05/11 10:10:40;;;;;;;;;;;17.20;99.90;;;;;;5095179;28;20006;-72
2022/05/11 10:13:09;;;;;;;;;;;17.20;99.90;;;;;;5095040;28;19981;-72
2022/05/11 10:24:23;;;;;;;;;;;17.20;99.90;;;;;;5095146;28;20266;-74
2022/05/11 10:27:00;;;;;;;;;;;17.20;99.90;;;;;;5094908;28;19930;-74
2022/05/11 10:29:29;;;;;;;;;;;17.30;99.90;;;;;;5094802;28;19908;-74
2022/05/11 10:32:09;;;;;;;;;;;17.20;99.90;;;;;;5094719;28;19908;-73
2022/05/11 10:34:40;;;;;;;;;;;17.30;99.90;;;;;;5094744;28;19985;-74
2022/05/11 10:37:15;;;;;;;;;;;17.20;99.90;;;;;;5094621;28;19919;-73
2022/05/11 10:39:47;;;;;;;;;;;17.20;99.90;;;;;;5094233;28;19973;-74
2022/05/11 10:42:34;;;;;;;;;;;17.20;99.90;;;;;;5094471;28;20409;-74
2022/05/11 10:45:19;;;;;;;;;;;17.10;99.90;;;;;;5094246;28;19908;-73
2022/05/11 10:47:45;;;;;;;;;;;17.10;99.90;;;;;;5094588;28;20274;-73
2022/05/11 10:50:15;;;;;;;;;;;17.10;99.90;;;;;;5094134;28;19946;-73
2022/05/11 10:52:44;;;;;;;;;;;17.10;99.90;;;;;;5094451;28;19909;-74
2022/05/11 10:55:43;;;;;;;;;;;17.10;99.90;;;;;;5094251;28;20282;-74
2022/05/11 10:58:20;;;;;;;;;;;17.20;99.90;;;;;;5081983;28;19908;-74
2022/05/11 11:00:49;;;;;;;;;;;17.20;99.90;;;;;;5093980;28;20362;-75
2022/05/11 11:03:33;;;;;;;;;;;17.20;99.90;;;;;;5094074;28;20248;-74
2022/05/11 11:09:07;;;;;;;;;;;17.20;99.90;;;;;;5094836;28;19962;-74
2022/05/11 11:11:36;;;;;;;;;;;17.20;99.90;;;;;;5095803;28;19966;-74
2022/05/11 11:14:04;;;;;;;;;;;17.20;99.90;;;;;;5094645;28;19908;-73
2022/05/11 11:16:35;;;;;;;;;;;17.20;99.90;;;;;;5094443;28;19953;-72
2022/05/11 11:19:03;;;;;;;;;;;17.10;99.90;;;;;;5094843;28;19908;-75
2022/05/11 11:21:30;;;;;;;;;;;17.10;99.90;;;;;;5094313;28;19923;-73
2022/05/11 11:24:22;;;;;;;;;;;17.20;99.90;;;;;;5094593;28;20282;-74
2022/05/11 11:26:53;;;;;;;;;;;17.10;99.90;;;;;;5104369;28;20002;-74
2022/05/11 11:29:21;;;;;;;;;;;17.10;99.90;;;;;;5098917;28;19908;-73
2022/05/11 11:32:00;;;;;;;;;;;17.10;99.90;;;;;;5098576;28;19956;-74
2022/05/11 11:34:29;;;;;;;;;;;17.10;99.90;;;;;;5099213;28;19908;-74
2022/05/11 11:36:56;;;;;;;;;;;17.10;99.90;;;;;;5095568;28;19952;-74
2022/05/11 11:39:54;;;;;;;;;;;17.10;99.90;;;;;;5073634;28;19908;-74
2022/05/11 11:42:32;;;;;;;;;;;17.00;99.90;;;;;;5061622;28;19969;-75
2022/05/11 11:44:59;;;;;;;;;;;17.00;99.90;;;;;;5073845;28;19909;-74
2022/05/11 11:47:30;;;;;;;;;;;16.90;99.90;;;;;;5074087;28;19908;-74
2022/05/11 11:49:58;;;;;;;;;;;17.00;99.90;;;;;;5073723;28;19921;-75
2022/05/11 11:52:45;;;;;;;;;;;17.00;99.90;;;;;;5073794;28;20367;-74
2022/05/11 11:55:21;;;;;;;;;;;16.90;99.90;;;;;;5073299;28;19947;-74
2022/05/11 11:57:48;;;;;;;;;;;17.00;99.90;;;;;;5073522;28;20457;-74
2022/05/11 12:00:35;;;;;;;;;;;17.00;99.90;;;;;;5074084;28;19964;-75
2022/05/11 12:03:02;;;;;;;;;;;17.00;99.90;;;;;;5069150;28;19923;-74
2022/05/11 12:05:37;;;;;;;;;;;17.00;99.90;;;;;;5073255;28;19909;-74
2022/05/11 12:16:50;;;;;;;;;;;17.00;99.90;;;;;;5073096;28;19915;-73
2022/05/11 12:19:17;;;;;;;;;;;17.00;99.90;;;;;;5073014;28;19908;-73
2022/05/11 12:21:53;;;;;;;;;;;17.00;99.90;;;;;;5072621;28;20434;-73
2022/05/11 12:24:23;;;;;;;;;;;17.00;99.90;;;;;;5104934;28;19908;-73
2022/05/11 12:26:57;;;;;;;;;;;16.90;99.90;;;;;;5073090;28;19908;-73
2022/05/11 12:32:09;;;;;;;;;;;17.00;99.90;;;;;;5073278;28;20465;-73
2022/05/11 12:34:44;;;;;;;;;;;17.00;99.90;;;;;;5073032;28;19909;-73
2022/05/11 12:37:31;;;;;;;;;;;16.90;99.90;;;;;;5076681;28;19999;-73
2022/05/11 12:40:15;;;;;;;;;;;16.90;99.90;;;;;;5076473;28;19909;-73
2022/05/11 12:42:46;;;;;;;;;;;16.90;99.90;;;;;;5076620;28;19916;-73
2022/05/11 12:45:19;;;;;;;;;;;16.90;99.90;;;;;;5076626;28;20393;-73
2022/05/11 12:47:53;;;;;;;;;;;16.90;99.90;;;;;;5076439;28;19909;-72
2022/05/11 12:50:23;;;;;;;;;;;16.90;99.90;;;;;;5076250;28;19921;-73
2022/05/11 12:53:09;;;;;;;;;;;16.90;99.90;;;;;;5075753;28;20290;-73
2022/05/11 12:55:36;;;;;;;;;;;16.90;99.90;;;;;;5108866;28;19962;-73
2022/05/11 12:58:04;;;;;;;;;;;16.90;99.90;;;;;;5076256;28;20003;-73
2022/05/11 13:00:33;;;;;;;;;;;16.90;99.90;;;;;;5080067;28;20354;-73
2022/05/11 13:03:00;;;;;;;;;;;16.90;99.90;;;;;;5081382;28;19920;-73
2022/05/11 13:05:28;;;;;;;;;;;16.90;99.90;;;;;;5076172;28;19908;-73
2022/05/11 13:07:57;;;;;;;;;;;16.90;99.90;;;;;;5075853;28;20007;-73
2022/05/11 13:10:38;;;;;;;;;;;16.90;99.90;;;;;;5076020;28;19958;-73
2022/05/11 13:13:11;;;;;;;;;;;16.90;99.90;;;;;;5076426;28;19912;-73
2022/05/11 13:15:37;;;;;;;;;;;16.90;99.90;;;;;;5075835;28;19908;-73
2022/05/11 13:18:06;;;;;;;;;;;16.90;99.90;;;;;;5076007;28;20379;-74
2022/05/11 13:20:37;;;;;;;;;;;16.90;99.90;;;;;;5075882;28;19920;-74
2022/05/11 13:23:08;;;;;;;;;;;16.80;99.90;;;;;;5075881;28;19912;-73
2022/05/11 13:25:46;;;;;;;;;;;16.80;99.90;;;;;;5075714;28;19916;-73
2022/05/11 13:28:15;;;;;;;;;;;16.70;99.90;;;;;;5075866;28;19915;-73
2022/05/11 13:30:46;;;;;;;;;;;16.70;99.90;;;;;;5075857;28;20366;-73
2022/05/11 13:33:45;;;;;;;;;;;16.70;99.90;;;;;;5075786;28;19915;-73
2022/05/11 13:36:15;;;;;;;;;;;16.60;99.90;;;;;;5063445;28;19998;-74
2022/05/11 13:39:07;;;;;;;;;;;16.60;99.90;;;;;;5075583;28;19934;-74
2022/05/11 13:41:36;;;;;;;;;;;16.60;99.90;;;;;;5074202;28;20408;-73
2022/05/11 13:44:07;;;;;;;;;;;16.60;99.90;;;;;;5075594;28;20335;-73
2022/05/11 13:46:37;;;;;;;;;;;16.60;99.90;;;;;;5075241;28;19935;-73
2022/05/11 13:49:18;;;;;;;;;;;16.60;99.90;;;;;;5075401;28;20371;-73
2022/05/11 13:51:45;;;;;;;;;;;16.60;99.90;;;;;;5075249;28;19921;-73
2022/05/11 13:54:27;;;;;;;;;;;16.70;99.90;;;;;;5075300;28;19977;-73
2022/05/11 13:57:03;;;;;;;;;;;16.70;99.90;;;;;;5075488;28;19951;-74
2022/05/11 13:59:30;;;;;;;;;;;16.70;99.90;;;;;;5075295;28;19909;-73
2022/05/11 14:01:59;;;;;;;;;;;16.70;99.90;;;;;;5075194;28;20363;-73
2022/05/11 14:04:29;;;;;;;;;;;16.70;99.90;;;;;;5075140;28;19968;-74
2022/05/11 14:06:57;;;;;;;;;;;16.70;99.90;;;;;;5075091;28;19997;-73
2022/05/11 14:09:24;;;;;;;;;;;16.70;99.90;;;;;;5075059;28;19912;-74
2022/05/11 14:11:51;;;;;;;;;;;16.70;99.90;;;;;;5074784;28;19909;-74
2022/05/11 14:14:18;;;;;;;;;;;16.70;99.90;;;;;;5074978;28;19913;-73
2022/05/11 14:16:44;;;;;;;;;;;16.70;99.90;;;;;;5074881;28;19912;-73
2022/05/11 14:19:11;;;;;;;;;;;16.70;99.90;;;;;;5074902;28;19962;-74
2022/05/11 14:21:42;;;;;;;;;;;16.70;99.90;;;;;;5074594;28;20007;-74
2022/05/11 14:24:09;;;;;;;;;;;16.70;99.90;;;;;;5074705;28;19948;-74
2022/05/11 14:26:36;;;;;;;;;;;16.70;99.90;;;;;;5074590;28;19908;-74
2022/05/11 14:29:03;;;;;;;;;;;16.70;99.90;;;;;;5074719;28;20306;-73
2022/05/11 14:31:29;;;;;;;;;;;16.70;99.90;;;;;;5074718;28;19912;-73
2022/05/11 14:33:56;;;;;;;;;;;16.70;99.90;;;;;;5074641;28;19915;-73
2022/05/11 14:36:23;;;;;;;;;;;16.80;99.90;;;;;;5074544;28;20052;-74
2022/05/11 14:38:49;;;;;;;;;;;16.70;99.90;;;;;;5074394;28;19908;-73
2022/05/11 14:41:16;;;;;;;;;;;16.70;99.90;;;;;;5074396;28;19956;-73
2022/05/11 14:43:42;;;;;;;;;;;16.70;99.90;;;;;;5074366;28;20389;-73
2022/05/11 14:46:29;;;;;;;;;;;16.70;99.90;;;;;;5074218;28;19969;-73
2022/05/11 14:48:56;;;;;;;;;;;16.80;99.90;;;;;;5073992;28;20352;-73
2022/05/11 14:51:23;;;;;;;;;;;16.70;99.90;;;;;;5074133;28;19920;-72
2022/05/11 14:53:50;;;;;;;;;;;16.70;99.90;;;;;;5073946;28;19919;-73
2022/05/11 14:56:19;;;;;;;;;;;16.60;99.90;;;;;;5074200;28;20316;-74
2022/05/11 15:04:29;;;;;;;;;;;16.60;99.90;;;;;;5074326;28;20403;-73
2022/05/11 15:06:56;;;;;;;;;;;16.70;99.90;;;;;;5073979;28;20057;-73
2022/05/11 15:09:25;;;;;;;;;;;16.70;99.90;;;;;;5073934;28;20422;-73
2022/05/11 15:14:38;;;;;;;;;;;16.70;99.90;;;;;;5073792;28;19916;-73
2022/05/11 15:17:06;;;;;;;;;;;16.70;99.90;;;;;;5073872;28;20003;-73
2022/05/11 15:19:33;;;;;;;;;;;16.70;99.90;;;;;;5073616;28;19908;-73
2022/05/11 15:22:00;;;;;;;;;;;16.70;99.90;;;;;;5073474;28;20367;-73
2022/05/11 15:24:26;;;;;;;;;;;16.70;99.90;;;;;;5073718;28;20303;-73
2022/05/11 15:26:53;;;;;;;;;;;16.70;99.90;;;;;;5073531;28;20286;-73
2022/05/11 15:29:20;;;;;;;;;;;16.70;99.90;;;;;;5073605;28;19916;-74